Pembrey Sands, United Kingdom
Current Conditions -  °F | °C
As of 6:50 AM on Wednesday 22 Oct 2014 (Local Time) from EGOP Reporting Station
Scattered Clouds Scattered Clouds  
Wind Chill: 52°   Ceiling: Unl
Heat Index: 52°   Visibility: 6mi
Dew Point: 46°   Wind: 20mph
Humidity: 82%   Direction: 280°W
Pressure: 30.33"   Gusts: NA
Location:  51.72°N, 4.37°W
Report Text: EGOP 220550Z AUTO 28017KT 9999 // SCT120/// 11/08 Q1027
Loading
Personal Weather Stations






























Interactive Weather Map
Tropical Storm Tracking
New forecast layout! Learn more

10-Day Weather Forecast

Advertisements
Track Severe Weather on mobile